Time;durP1;ratioP1;P1;durP2;ratioP2;P2;SDS_P1;SDS_P2;PMS_P1;PMS_P2;Temp;Humidity;BMP_temperature;BMP_pressure;BME280_temperature;BME280_humidity;BME280_pressure;Samples;Min_cycle;Max_cycle;Signal;HPM_P1;HPM_P2
2023/09/13 00:00:25;;;;;;;12.18;10.13;;;18.60;65.20;;;;;;4994242;28;20029;-56
2023/09/13 00:02:50;;;;;;;15.10;10.50;;;18.60;65.20;;;;;;5012218;28;20026;-57
2023/09/13 00:05:16;;;;;;;13.98;10.52;;;18.50;65.20;;;;;;4994286;28;20061;-56
2023/09/13 00:07:42;;;;;;;16.27;10.57;;;18.50;65.20;;;;;;5012279;28;20030;-56
2023/09/13 00:10:08;;;;;;;14.93;10.38;;;18.50;65.50;;;;;;5011969;28;20092;-56
2023/09/13 00:12:34;;;;;;;17.42;11.13;;;18.50;65.80;;;;;;5012174;28;20056;-56
2023/09/13 00:14:59;;;;;;;13.65;10.27;;;18.40;65.80;;;;;;4997331;28;20025;-57
2023/09/13 00:17:28;;;;;;;14.43;10.27;;;18.40;66.00;;;;;;5018569;28;20040;-55
2023/09/13 00:19:58;;;;;;;13.35;10.13;;;18.30;65.90;;;;;;5018255;28;20034;-57
2023/09/13 00:22:26;;;;;;;14.23;10.60;;;18.30;65.90;;;;;;5018303;28;20030;-57
2023/09/13 00:24:52;;;;;;;12.38;10.25;;;18.30;66.30;;;;;;5018365;28;20414;-57
2023/09/13 00:27:18;;;;;;;15.13;10.57;;;18.30;66.40;;;;;;5018129;28;20029;-55
2023/09/13 00:29:44;;;;;;;14.45;10.68;;;18.30;66.50;;;;;;5018285;28;20546;-56
2023/09/13 00:32:09;;;;;;;13.88;10.15;;;18.30;66.60;;;;;;5018259;28;20485;-56
2023/09/13 00:34:35;;;;;;;13.73;10.40;;;18.20;66.50;;;;;;5018232;28;20029;-57
2023/09/13 00:37:01;;;;;;;19.67;10.70;;;18.20;66.70;;;;;;5018187;28;20538;-57
2023/09/13 00:39:26;;;;;;;15.73;10.93;;;18.20;66.60;;;;;;5018197;28;20040;-56
2023/09/13 00:41:57;;;;;;;14.63;10.82;;;18.20;66.50;;;;;;5018247;28;20030;-57
2023/09/13 00:44:25;;;;;;;13.13;10.35;;;18.20;66.40;;;;;;5018548;28;20030;-56
2023/09/13 00:46:51;;;;;;;14.70;11.18;;;18.20;66.70;;;;;;5018110;28;20030;-56
2023/09/13 00:49:17;;;;;;;12.63;9.77;;;18.10;66.80;;;;;;5018130;28;20048;-55
2023/09/13 00:51:46;;;;;;;17.83;10.55;;;18.10;67.20;;;;;;5017997;28;20108;-56
2023/09/13 00:54:13;;;;;;;15.70;10.50;;;18.10;67.00;;;;;;5015935;28;20069;-56
2023/09/13 00:56:40;;;;;;;11.98;10.10;;;18.10;67.20;;;;;;5018149;28;20128;-56
2023/09/13 00:59:07;;;;;;;13.80;9.93;;;18.10;67.20;;;;;;5018046;28;20497;-56
2023/09/13 01:01:34;;;;;;;13.93;11.07;;;18.00;67.20;;;;;;5018282;28;20041;-57
2023/09/13 01:04:00;;;;;;;13.35;9.95;;;18.00;67.30;;;;;;5018288;28;20484;-56
2023/09/13 01:06:25;;;;;;;13.23;10.25;;;18.00;67.20;;;;;;5018107;28;20057;-57
2023/09/13 01:08:52;;;;;;;17.27;11.07;;;18.00;67.20;;;;;;5017892;28;20064;-53
2023/09/13 01:11:18;;;;;;;13.63;10.60;;;18.00;67.00;;;;;;5017739;28;20524;-56
2023/09/13 01:13:44;;;;;;;13.70;10.65;;;18.00;67.20;;;;;;5000969;28;20466;-56
2023/09/13 01:16:25;;;;;;;14.50;10.40;;;18.00;67.20;;;;;;5017779;28;20026;-56
2023/09/13 01:18:59;;;;;;;12.55;9.82;;;18.00;67.20;;;;;;5017773;28;20033;-56
2023/09/13 01:22:02;;;;;;;13.30;9.25;;;18.00;67.40;;;;;;5017740;28;20076;-56
2023/09/13 01:25:09;;;;;;;10.90;9.40;;;18.00;67.20;;;;;;5017850;28;20026;-56
2023/09/13 01:27:56;;;;;;;11.07;9.18;;;18.00;66.70;;;;;;5013651;28;20030;-55
2023/09/13 01:30:23;;;;;;;11.70;8.48;;;18.00;66.40;;;;;;4996993;28;20444;-57
2023/09/13 01:32:51;;;;;;;11.77;8.88;;;18.00;66.60;;;;;;5014943;28;20466;-56
2023/09/13 01:35:17;;;;;;;11.32;8.60;;;18.00;65.90;;;;;;5014643;28;20109;-57
2023/09/13 01:37:42;;;;;;;14.82;10.38;;;18.10;66.00;;;;;;5014581;28;20065;-56
2023/09/13 01:40:09;;;;;;;14.18;9.90;;;18.10;65.70;;;;;;5014620;28;20052;-57
2023/09/13 01:42:38;;;;;;;12.60;9.07;;;18.10;65.60;;;;;;4996920;28;20033;-56
2023/09/13 01:45:09;;;;;;;11.82;9.00;;;18.10;65.60;;;;;;5014534;28;20398;-56
2023/09/13 01:47:35;;;;;;;14.70;9.23;;;18.10;65.90;;;;;;5014684;28;20080;-56
2023/09/13 01:50:01;;;;;;;14.90;10.15;;;18.10;66.00;;;;;;5014265;28;20022;-56
2023/09/13 01:52:28;;;;;;;13.32;10.35;;;18.10;66.20;;;;;;5014419;28;20064;-56
2023/09/13 01:54:54;;;;;;;14.05;10.70;;;18.10;66.50;;;;;;5014396;28;20050;-56
2023/09/13 01:57:20;;;;;;;13.95;10.82;;;18.00;66.60;;;;;;5014258;28;20026;-56
2023/09/13 01:59:45;;;;;;;17.27;11.45;;;18.00;66.60;;;;;;5014320;28;20030;-57
2023/09/13 02:02:11;;;;;;;15.93;11.43;;;18.00;66.80;;;;;;4996356;28;20914;-55
2023/09/13 02:04:36;;;;;;;30.10;12.40;;;17.90;66.60;;;;;;5014298;28;20021;-57
2023/09/13 02:07:03;;;;;;;19.77;11.48;;;17.90;66.80;;;;;;5013974;28;20096;-56
2023/09/13 02:09:28;;;;;;;14.95;11.60;;;17.80;66.80;;;;;;5013821;28;20038;-55
2023/09/13 02:11:54;;;;;;;13.85;11.70;;;17.80;67.00;;;;;;5013715;28;20113;-57
2023/09/13 02:14:20;;;;;;;16.60;11.70;;;17.80;67.20;;;;;;5013785;28;20072;-55
2023/09/13 02:16:45;;;;;;;18.77;12.23;;;17.80;67.30;;;;;;5013751;28;20030;-56
2023/09/13 02:19:11;;;;;;;15.38;11.95;;;17.80;67.30;;;;;;5013928;28;20165;-56
2023/09/13 02:21:36;;;;;;;15.13;11.15;;;17.80;67.30;;;;;;5013944;28;20030;-56
2023/09/13 02:24:02;;;;;;;16.08;11.95;;;17.80;67.40;;;;;;5013740;28;20470;-57
2023/09/13 02:26:28;;;;;;;17.50;11.65;;;17.70;67.40;;;;;;5013711;28;20030;-56
2023/09/13 02:28:54;;;;;;;16.10;11.68;;;17.70;67.50;;;;;;5013479;28;20040;-54
2023/09/13 02:31:27;;;;;;;16.15;12.45;;;17.70;67.80;;;;;;5013745;28;20026;-56
2023/09/13 02:33:54;;;;;;;15.23;12.20;;;17.70;67.80;;;;;;5013426;28;20018;-56
2023/09/13 02:36:20;;;;;;;15.77;12.30;;;17.70;68.10;;;;;;5013484;28;20382;-56
2023/09/13 02:38:46;;;;;;;14.52;11.05;;;17.70;68.20;;;;;;5013339;28;20042;-56
2023/09/13 02:41:11;;;;;;;15.27;11.35;;;17.70;68.20;;;;;;5013314;28;20133;-56
2023/09/13 02:43:39;;;;;;;17.98;12.32;;;17.70;68.20;;;;;;5013276;28;20036;-56
2023/09/13 02:46:05;;;;;;;14.02;11.32;;;17.70;68.40;;;;;;5013630;28;20029;-56
2023/09/13 02:48:31;;;;;;;16.75;12.68;;;17.70;68.40;;;;;;5013190;28;20097;-56
2023/09/13 02:50:56;;;;;;;16.85;12.45;;;17.60;68.50;;;;;;5013112;28;20486;-57
2023/09/13 02:53:22;;;;;;;17.00;12.73;;;17.60;68.60;;;;;;5013086;28;20061;-56
2023/09/13 02:55:48;;;;;;;14.52;11.20;;;17.60;68.90;;;;;;5012981;28;20073;-56
2023/09/13 02:58:14;;;;;;;15.70;12.20;;;17.60;69.10;;;;;;5013277;28;20022;-55
2023/09/13 03:00:43;;;;;;;15.00;12.13;;;17.60;69.20;;;;;;5013290;28;20030;-55
2023/09/13 03:03:09;;;;;;;20.25;12.88;;;17.60;69.30;;;;;;5012939;28;20048;-56
2023/09/13 03:05:36;;;;;;;15.90;12.13;;;17.60;69.40;;;;;;5012942;28;20547;-56
2023/09/13 03:08:02;;;;;;;15.18;12.23;;;17.60;69.60;;;;;;5012954;28;20033;-56
2023/09/13 03:10:28;;;;;;;15.75;11.95;;;17.50;69.70;;;;;;5012926;28;20037;-54
2023/09/13 03:12:54;;;;;;;16.58;12.85;;;17.60;70.00;;;;;;5012716;28;20026;-55
2023/09/13 03:15:20;;;;;;;16.90;12.55;;;17.60;70.10;;;;;;5012646;28;20026;-56
2023/09/13 03:17:45;;;;;;;16.45;12.65;;;17.60;70.20;;;;;;5012697;28;20437;-56
2023/09/13 03:20:12;;;;;;;18.92;11.52;;;17.60;70.30;;;;;;5012948;28;20032;-56
2023/09/13 03:22:38;;;;;;;15.15;11.10;;;17.60;70.40;;;;;;5012484;28;20152;-56
2023/09/13 03:25:05;;;;;;;18.52;12.73;;;17.60;70.70;;;;;;5012525;28;20537;-54
2023/09/13 03:27:32;;;;;;;15.73;12.07;;;17.60;71.20;;;;;;5012676;28;20032;-56
2023/09/13 03:30:01;;;;;;;14.13;11.82;;;17.60;71.40;;;;;;5012733;28;20034;-55
2023/09/13 03:32:28;;;;;;;17.95;12.65;;;17.60;71.50;;;;;;5012168;28;20080;-56
2023/09/13 03:34:53;;;;;;;19.05;12.68;;;17.60;71.80;;;;;;5011959;28;20026;-55
2023/09/13 03:37:19;;;;;;;18.88;11.88;;;17.70;72.10;;;;;;5011190;28;20025;-56
2023/09/13 03:39:45;;;;;;;19.38;12.75;;;17.70;72.50;;;;;;5011776;28;20021;-56
2023/09/13 03:42:10;;;;;;;14.77;11.80;;;17.70;72.60;;;;;;5012353;28;20704;-54
2023/09/13 03:44:36;;;;;;;15.18;12.68;;;17.70;72.60;;;;;;5011748;28;20084;-56
2023/09/13 03:47:01;;;;;;;17.40;12.43;;;17.70;72.60;;;;;;5012310;28;20029;-56
2023/09/13 03:49:27;;;;;;;16.27;12.82;;;17.70;72.50;;;;;;5011044;28;20363;-56
2023/09/13 03:51:53;;;;;;;17.23;12.73;;;17.70;72.60;;;;;;5011215;28;20133;-57
2023/09/13 03:54:18;;;;;;;21.45;13.75;;;17.70;72.80;;;;;;5011397;28;20034;-57
2023/09/13 03:56:44;;;;;;;18.30;12.93;;;17.70;73.00;;;;;;5011241;28;20034;-54
2023/09/13 03:59:09;;;;;;;17.83;12.60;;;17.80;73.40;;;;;;5011723;28;20433;-57
2023/09/13 04:01:35;;;;;;;19.38;12.35;;;17.80;73.50;;;;;;5012042;28;20433;-56
2023/09/13 04:04:01;;;;;;;18.15;13.55;;;17.80;73.60;;;;;;5012047;28;20808;-56
2023/09/13 04:06:27;;;;;;;17.30;12.35;;;17.80;73.90;;;;;;5011907;28;20090;-55
2023/09/13 04:08:52;;;;;;;18.10;12.25;;;17.90;74.10;;;;;;5012444;28;20034;-56
2023/09/13 04:11:18;;;;;;;19.95;12.90;;;18.00;74.50;;;;;;5011797;28;20540;-56
2023/09/13 04:13:44;;;;;;;17.85;12.23;;;18.00;74.80;;;;;;5012096;28;20026;-57
2023/09/13 04:16:15;;;;;;;22.05;13.20;;;18.10;74.80;;;;;;5011902;28;20024;-56
2023/09/13 04:18:41;;;;;;;18.95;13.05;;;18.20;75.30;;;;;;5012021;28;20433;-59
2023/09/13 04:21:06;;;;;;;16.23;12.93;;;18.20;75.60;;;;;;5011876;28;20113;-56
2023/09/13 04:23:32;;;;;;;19.05;13.23;;;18.30;75.80;;;;;;5011870;28;20025;-57
2023/09/13 04:25:58;;;;;;;18.77;13.45;;;18.30;75.80;;;;;;5011464;28;20059;-58
2023/09/13 04:28:23;;;;;;;22.48;14.40;;;18.50;76.20;;;;;;5011714;28;20029;-58
2023/09/13 04:30:49;;;;;;;19.77;13.27;;;18.50;76.60;;;;;;5010786;28;20022;-58
2023/09/13 04:33:14;;;;;;;21.95;14.00;;;18.60;76.70;;;;;;5011797;28;20030;-54
2023/09/13 04:35:40;;;;;;;20.58;14.73;;;18.60;76.80;;;;;;5011706;28;20018;-58
2023/09/13 04:38:06;;;;;;;19.55;14.32;;;18.70;76.80;;;;;;5011758;28;20054;-57
2023/09/13 04:40:32;;;;;;;21.50;14.65;;;18.80;76.80;;;;;;5012063;28;20026;-58
2023/09/13 04:43:08;;;;;;;20.75;14.98;;;18.90;77.00;;;;;;5011702;28;20520;-57
2023/09/13 04:45:34;;;;;;;22.70;15.48;;;19.00;76.80;;;;;;5011409;28;20061;-58
2023/09/13 04:48:00;;;;;;;24.17;14.40;;;18.90;76.50;;;;;;5010668;28;20508;-57
2023/09/13 04:50:25;;;;;;;19.85;14.80;;;19.10;77.00;;;;;;5011139;28;20456;-56
2023/09/13 04:52:51;;;;;;;19.83;13.90;;;19.10;76.20;;;;;;5011399;28;20021;-58
2023/09/13 04:55:18;;;;;;;21.60;14.18;;;19.20;75.50;;;;;;5011427;28;20443;-58
2023/09/13 04:57:44;;;;;;;20.55;15.13;;;19.30;74.60;;;;;;5011337;28;20049;-57
2023/09/13 05:00:11;;;;;;;19.85;15.32;;;19.30;73.60;;;;;;4992906;28;20068;-55
2023/09/13 05:02:38;;;;;;;20.80;16.55;;;19.30;72.60;;;;;;5012218;28;20065;-53
2023/09/13 05:05:04;;;;;;;21.13;16.33;;;19.40;71.60;;;;;;5013822;28;20034;-55
2023/09/13 05:07:30;;;;;;;20.50;15.27;;;19.50;70.90;;;;;;5013801;28;20037;-55
2023/09/13 05:09:55;;;;;;;21.50;15.45;;;19.50;70.00;;;;;;5013647;28;20479;-54
2023/09/13 05:12:22;;;;;;;16.98;14.27;;;19.60;69.40;;;;;;5013761;28;20017;-54
2023/09/13 05:14:48;;;;;;;15.85;13.63;;;19.60;68.50;;;;;;5013542;28;20044;-55
2023/09/13 05:17:13;;;;;;;19.13;13.65;;;19.70;68.00;;;;;;5013679;28;20029;-52
2023/09/13 05:19:39;;;;;;;16.88;13.45;;;19.70;67.30;;;;;;5013396;28;20117;-55
2023/09/13 05:22:05;;;;;;;16.25;13.00;;;19.70;67.00;;;;;;5014284;28;20033;-54
2023/09/13 05:24:30;;;;;;;18.73;13.52;;;19.80;66.90;;;;;;5014274;28;20030;-57
2023/09/13 05:26:56;;;;;;;21.40;14.23;;;19.80;66.60;;;;;;5014276;28;20437;-55
2023/09/13 05:29:22;;;;;;;22.30;15.82;;;19.80;66.60;;;;;;5014113;28;20034;-54
2023/09/13 05:31:49;;;;;;;24.55;14.88;;;19.90;67.00;;;;;;5014378;28;20037;-55
2023/09/13 05:34:14;;;;;;;21.42;15.63;;;19.90;67.30;;;;;;5014318;28;20037;-55
2023/09/13 05:36:41;;;;;;;19.85;15.00;;;20.00;67.80;;;;;;5014221;28;20018;-55
2023/09/13 05:39:07;;;;;;;21.23;15.18;;;20.00;67.90;;;;;;5014347;28;20040;-54
2023/09/13 05:41:33;;;;;;;22.88;15.88;;;20.10;68.10;;;;;;5013615;28;20389;-55
2023/09/13 05:43:59;;;;;;;21.27;15.30;;;20.10;68.60;;;;;;5014007;28;20109;-55
2023/09/13 05:46:25;;;;;;;16.85;14.32;;;20.20;69.10;;;;;;5014042;28;20026;-56
2023/09/13 05:48:50;;;;;;;18.80;14.68;;;20.20;69.40;;;;;;5013574;28;20058;-55
2023/09/13 05:51:17;;;;;;;17.70;14.82;;;20.30;69.90;;;;;;5013961;28;20029;-53
2023/09/13 05:53:43;;;;;;;18.00;14.57;;;20.30;70.30;;;;;;5014154;28;20088;-54
2023/09/13 05:56:12;;;;;;;19.38;14.80;;;20.40;70.70;;;;;;5013683;28;20042;-55
2023/09/13 05:58:43;;;;;;;23.25;15.73;;;20.40;71.00;;;;;;5013852;28;20029;-56
2023/09/13 06:01:09;;;;;;;23.90;16.40;;;20.50;71.10;;;;;;5014010;28;20473;-56
2023/09/13 06:03:35;;;;;;;17.63;15.20;;;20.50;71.30;;;;;;5014050;28;20038;-55
2023/09/13 06:06:01;;;;;;;25.20;16.75;;;20.60;71.70;;;;;;5013690;28;20030;-57
2023/09/13 06:08:26;;;;;;;24.75;17.08;;;20.60;71.70;;;;;;5013690;28;20060;-56
2023/09/13 06:10:52;;;;;;;20.02;16.58;;;20.60;71.70;;;;;;5013490;28;20030;-56
2023/09/13 06:13:17;;;;;;;20.85;17.45;;;20.70;71.90;;;;;;5013393;28;20478;-54
2023/09/13 06:15:43;;;;;;;19.73;16.77;;;20.70;72.00;;;;;;5013753;28;20018;-57
2023/09/13 06:18:09;;;;;;;16.73;13.77;;;20.80;72.30;;;;;;5013438;28;20127;-56
2023/09/13 06:20:34;;;;;;;17.98;13.98;;;20.70;73.50;;;;;;5013492;28;20088;-57
2023/09/13 06:23:00;;;;;;;19.73;14.45;;;20.80;74.40;;;;;;5013362;28;20039;-56
2023/09/13 06:25:25;;;;;;;16.88;13.90;;;20.90;74.60;;;;;;5013365;28;20386;-56
2023/09/13 06:27:51;;;;;;;19.15;15.20;;;20.90;74.60;;;;;;5013580;28;20163;-56
2023/09/13 06:30:17;;;;;;;18.88;15.57;;;21.00;74.30;;;;;;5013123;28;20026;-56
2023/09/13 06:32:43;;;;;;;18.30;14.60;;;21.00;74.20;;;;;;5012392;28;20048;-56
2023/09/13 06:35:12;;;;;;;20.10;17.02;;;21.10;74.20;;;;;;5012039;28;20049;-57
2023/09/13 06:37:38;;;;;;;21.95;17.30;;;21.10;74.20;;;;;;5012569;28;20053;-58
2023/09/13 06:40:05;;;;;;;21.83;19.45;;;21.20;74.30;;;;;;5013106;28;20029;-56
2023/09/13 06:42:31;;;;;;;28.58;22.08;;;21.20;74.20;;;;;;5012846;28;20164;-57
2023/09/13 06:44:57;;;;;;;23.52;20.08;;;21.30;73.70;;;;;;5013365;28;20469;-57
2023/09/13 06:47:23;;;;;;;24.10;17.58;;;21.30;73.50;;;;;;5013053;28;20402;-57
2023/09/13 06:49:48;;;;;;;21.63;16.20;;;21.40;73.50;;;;;;5012803;28;20041;-57
2023/09/13 06:52:14;;;;;;;22.63;14.82;;;21.40;73.50;;;;;;5012821;28;20104;-56
2023/09/13 06:54:40;;;;;;;20.98;15.80;;;21.50;73.50;;;;;;5012536;28;20061;-57
2023/09/13 06:57:08;;;;;;;18.58;14.63;;;21.50;73.50;;;;;;5012835;28;20467;-57
2023/09/13 06:59:34;;;;;;;18.38;13.93;;;21.50;73.00;;;;;;5012834;28;20409;-56
2023/09/13 07:02:00;;;;;;;18.33;13.98;;;21.60;72.80;;;;;;5011683;28;20022;-57
2023/09/13 07:04:25;;;;;;;15.60;13.40;;;21.60;73.70;;;;;;5012583;28;20033;-57
2023/09/13 07:06:51;;;;;;;14.77;12.35;;;21.60;73.50;;;;;;5012644;28;20065;-57
2023/09/13 07:09:16;;;;;;;19.33;13.43;;;21.60;73.80;;;;;;5012514;28;20030;-57
2023/09/13 07:11:43;;;;;;;14.23;12.63;;;21.60;74.30;;;;;;5012445;28;20438;-56
2023/09/13 07:14:08;;;;;;;17.40;13.48;;;21.60;74.70;;;;;;5011800;28;20029;-57
2023/09/13 07:16:34;;;;;;;15.52;13.63;;;21.60;75.50;;;;;;5012013;28;20026;-56
2023/09/13 07:19:02;;;;;;;18.52;13.90;;;21.60;75.20;;;;;;5012616;28;20036;-56
2023/09/13 07:21:28;;;;;;;17.67;13.88;;;21.70;75.60;;;;;;5012078;28;20029;-57
2023/09/13 07:23:55;;;;;;;15.45;13.50;;;21.70;75.70;;;;;;5011548;28;20070;-56
2023/09/13 07:26:20;;;;;;;16.15;13.32;;;21.70;75.90;;;;;;5012560;28;20568;-57
2023/09/13 07:28:46;;;;;;;20.85;14.05;;;21.70;76.10;;;;;;5012751;28;20501;-54
2023/09/13 07:31:12;;;;;;;14.57;12.50;;;21.70;76.40;;;;;;5012171;28;20390;-56
2023/09/13 07:33:37;;;;;;;14.23;12.73;;;21.70;76.90;;;;;;5012359;28;20029;-56
2023/09/13 07:36:03;;;;;;;14.98;12.48;;;21.70;77.20;;;;;;5012118;28;20105;-58
2023/09/13 07:38:29;;;;;;;15.45;12.68;;;21.70;77.10;;;;;;5012287;28;20025;-55
2023/09/13 07:40:55;;;;;;;13.88;11.38;;;21.80;77.10;;;;;;5012313;28;20044;-56
2023/09/13 07:43:20;;;;;;;15.38;11.65;;;21.80;77.20;;;;;;5011896;28;20030;-57
2023/09/13 07:45:46;;;;;;;14.35;11.77;;;21.80;77.10;;;;;;5011991;28;20038;-57
2023/09/13 07:48:12;;;;;;;11.80;10.52;;;21.80;77.20;;;;;;5011895;28;20061;-58
2023/09/13 07:50:42;;;;;;;11.52;10.00;;;21.80;77.00;;;;;;5012255;28;20048;-57
2023/09/13 07:53:10;;;;;;;10.43;9.00;;;21.80;77.20;;;;;;5012472;28;20018;-52
2023/09/13 07:55:36;;;;;;;13.20;10.20;;;21.80;77.50;;;;;;5011661;28;20053;-56
2023/09/13 07:58:04;;;;;;;10.57;9.48;;;21.90;77.10;;;;;;5011608;28;20390;-55
2023/09/13 08:00:30;;;;;;;10.68;8.80;;;21.90;77.30;;;;;;5011721;28;20026;-56
2023/09/13 08:02:56;;;;;;;11.40;9.57;;;21.90;77.40;;;;;;5011891;28;20034;-57
2023/09/13 08:05:22;;;;;;;10.95;8.95;;;21.90;77.80;;;;;;5011697;28;20109;-56
2023/09/13 08:07:47;;;;;;;11.32;9.15;;;21.90;78.10;;;;;;5008830;28;20097;-58
2023/09/13 08:10:13;;;;;;;13.40;9.45;;;21.90;77.90;;;;;;4984752;28;20097;-54
2023/09/13 08:12:39;;;;;;;10.95;8.60;;;21.90;77.60;;;;;;4988280;28;20079;-58
2023/09/13 08:15:06;;;;;;;10.18;8.82;;;22.00;77.50;;;;;;4991386;28;20026;-57
2023/09/13 08:17:33;;;;;;;11.90;8.35;;;22.00;77.20;;;;;;4988366;28;20065;-57
2023/09/13 08:19:59;;;;;;;12.82;9.10;;;22.00;77.40;;;;;;4985777;28;20034;-58
2023/09/13 08:22:24;;;;;;;11.20;8.90;;;22.00;77.10;;;;;;4989000;28;20376;-58
2023/09/13 08:24:50;;;;;;;11.63;9.05;;;22.00;76.80;;;;;;4989369;28;20054;-57
2023/09/13 08:27:15;;;;;;;10.02;8.75;;;22.10;77.00;;;;;;4987723;28;20038;-55
2023/09/13 08:29:41;;;;;;;11.55;9.15;;;22.00;76.70;;;;;;4987842;28;20398;-58
2023/09/13 08:32:07;;;;;;;10.40;8.93;;;22.10;77.00;;;;;;4989111;28;20090;-58
2023/09/13 08:34:35;;;;;;;9.00;8.02;;;22.10;77.00;;;;;;4987152;28;20093;-58
2023/09/13 08:37:01;;;;;;;9.63;8.52;;;22.10;76.20;;;;;;4988723;28;20033;-59
2023/09/13 08:39:27;;;;;;;10.13;8.15;;;22.20;75.60;;;;;;4992045;28;20077;-57
2023/09/13 08:41:54;;;;;;;11.38;8.18;;;22.20;75.30;;;;;;4988538;28;20034;-58
2023/09/13 08:44:22;;;;;;;8.68;7.65;;;22.20;75.70;;;;;;4990368;28;20088;-58
2023/09/13 08:46:55;;;;;;;11.35;7.80;;;22.20;76.00;;;;;;4990704;28;20038;-58
2023/09/13 08:49:22;;;;;;;11.50;8.18;;;22.20;74.00;;;;;;4988564;28;20462;-56
2023/09/13 08:51:48;;;;;;;9.50;7.82;;;22.20;73.60;;;;;;4989112;28;20034;-58
2023/09/13 08:54:15;;;;;;;11.38;8.02;;;22.20;73.80;;;;;;4990025;28;20035;-57
2023/09/13 08:56:45;;;;;;;8.70;7.30;;;22.20;74.00;;;;;;4985399;28;20465;-57
2023/09/13 08:59:12;;;;;;;10.93;8.30;;;22.20;73.20;;;;;;4986842;28;20030;-57
2023/09/13 09:01:40;;;;;;;9.23;7.50;;;22.20;72.50;;;;;;4995042;28;20030;-58
2023/09/13 09:04:06;;;;;;;8.45;6.88;;;22.30;72.30;;;;;;4992113;28;20486;-55
2023/09/13 09:06:32;;;;;;;9.10;6.68;;;22.30;72.20;;;;;;4990872;28;20136;-58
2023/09/13 09:08:58;;;;;;;8.07;6.55;;;22.30;70.70;;;;;;4988539;28;20066;-57
2023/09/13 09:11:27;;;;;;;10.77;6.05;;;22.40;69.40;;;;;;4991029;28;20553;-57
2023/09/13 09:13:58;;;;;;;7.25;6.35;;;22.40;67.80;;;;;;4989567;28;20474;-58
2023/09/13 09:16:26;;;;;;;7.75;5.82;;;22.40;67.10;;;;;;4984950;28;20030;-59
2023/09/13 09:18:53;;;;;;;7.70;5.45;;;22.40;66.50;;;;;;4986363;28;20113;-53
2023/09/13 09:21:19;;;;;;;7.47;5.47;;;22.40;64.90;;;;;;4988937;28;20034;-55
2023/09/13 09:23:45;;;;;;;8.25;6.40;;;22.40;63.70;;;;;;4990729;28;20106;-55
2023/09/13 09:26:11;;;;;;;7.00;5.70;;;22.40;63.70;;;;;;4998974;28;20131;-56
2023/09/13 09:28:36;;;;;;;6.90;5.63;;;22.40;63.50;;;;;;4988623;28;20034;-56
2023/09/13 09:31:03;;;;;;;9.82;5.60;;;22.40;63.50;;;;;;4987409;28;20030;-58
2023/09/13 09:33:30;;;;;;;6.78;6.00;;;22.50;63.30;;;;;;4995230;28;20033;-57
2023/09/13 09:35:58;;;;;;;8.40;6.18;;;22.50;62.90;;;;;;4988158;28;20034;-58
2023/09/13 09:38:27;;;;;;;8.20;6.03;;;22.50;62.50;;;;;;4994278;28;20133;-56
2023/09/13 09:40:57;;;;;;;9.82;5.78;;;22.50;62.70;;;;;;4988980;28;20600;-56
2023/09/13 09:43:23;;;;;;;7.03;5.47;;;22.50;62.40;;;;;;4992535;28;20027;-55
2023/09/13 09:45:49;;;;;;;6.60;5.78;;;22.50;62.20;;;;;;4982083;28;20037;-57
2023/09/13 09:48:15;;;;;;;7.18;6.43;;;22.40;61.40;;;;;;4987484;28;20034;-57
2023/09/13 09:50:46;;;;;;;7.45;5.53;;;22.40;62.50;;;;;;4988171;28;20073;-57
2023/09/13 09:53:15;;;;;;;7.78;6.43;;;22.50;61.80;;;;;;4987133;28;20054;-54
2023/09/13 09:55:45;;;;;;;9.50;6.65;;;22.50;63.30;;;;;;4988280;28;20141;-58
2023/09/13 09:58:11;;;;;;;7.78;5.78;;;22.50;63.20;;;;;;4986727;28;20359;-56
2023/09/13 10:00:51;;;;;;;5.97;5.38;;;22.50;61.90;;;;;;4985295;28;20037;-54
2023/09/13 10:03:18;;;;;;;10.60;5.32;;;22.50;61.60;;;;;;4981868;28;20096;-57
2023/09/13 10:06:14;;;;;;;6.85;5.50;;;22.50;61.60;;;;;;4985490;28;20391;-58
2023/09/13 10:08:45;;;;;;;6.75;5.47;;;22.50;61.20;;;;;;4989697;28;20038;-55
2023/09/13 10:11:13;;;;;;;7.68;5.45;;;22.50;61.80;;;;;;4986573;28;20038;-56
2023/09/13 10:13:40;;;;;;;8.63;5.75;;;22.50;61.30;;;;;;4989252;28;20031;-57
2023/09/13 10:16:07;;;;;;;8.35;5.18;;;22.50;60.60;;;;;;4987103;28;20072;-57
2023/09/13 10:18:41;;;;;;;7.18;5.50;;;22.60;60.10;;;;;;4983501;28;20042;-54
2023/09/13 10:21:09;;;;;;;7.50;5.07;;;22.60;60.40;;;;;;4989580;28;20030;-56
2023/09/13 10:23:40;;;;;;;6.65;5.18;;;22.60;59.60;;;;;;4983515;28;20058;-56
2023/09/13 10:26:08;;;;;;;6.40;5.18;;;22.60;58.80;;;;;;4981827;28;20033;-56
2023/09/13 10:28:35;;;;;;;8.77;5.38;;;22.60;59.60;;;;;;4986429;28;20104;-57
2023/09/13 10:31:05;;;;;;;7.32;4.90;;;22.60;59.00;;;;;;4984770;28;20037;-56
2023/09/13 10:33:32;;;;;;;7.68;5.40;;;22.70;58.50;;;;;;4982025;28;20382;-57
2023/09/13 10:36:00;;;;;;;8.88;5.15;;;22.70;59.70;;;;;;4992719;28;20034;-56
2023/09/13 10:38:42;;;;;;;7.25;5.72;;;22.70;59.60;;;;;;4986052;28;20050;-58
2023/09/13 10:41:13;;;;;;;6.45;5.70;;;22.80;60.30;;;;;;4985820;28;20573;-57
2023/09/13 10:43:40;;;;;;;7.32;5.50;;;22.70;60.50;;;;;;4986953;28;20505;-57
2023/09/13 10:46:08;;;;;;;7.05;5.35;;;22.70;60.90;;;;;;4980940;28;20161;-57
2023/09/13 10:48:34;;;;;;;6.68;5.78;;;22.70;60.50;;;;;;4984993;28;20050;-58
2023/09/13 10:51:01;;;;;;;7.22;5.60;;;22.70;60.20;;;;;;4986299;28;20131;-57
2023/09/13 10:53:27;;;;;;;9.65;5.60;;;22.70;60.50;;;;;;4982668;28;20026;-58
2023/09/13 10:55:53;;;;;;;8.70;5.55;;;22.70;60.80;;;;;;5002252;28;20478;-56
2023/09/13 10:58:20;;;;;;;10.63;6.30;;;22.70;60.90;;;;;;5003580;28;20116;-57
2023/09/13 11:00:50;;;;;;;8.23;5.70;;;22.70;61.30;;;;;;5004952;28;20034;-58
2023/09/13 11:03:19;;;;;;;8.10;5.25;;;22.80;61.70;;;;;;5006062;28;20033;-57
2023/09/13 11:05:51;;;;;;;7.45;5.65;;;22.70;61.10;;;;;;5003089;28;20030;-57
2023/09/13 11:08:31;;;;;;;9.75;5.95;;;22.80;61.10;;;;;;4998171;28;20137;-56
2023/09/13 11:11:07;;;;;;;6.57;5.80;;;22.80;61.90;;;;;;5005456;28;20045;-58
2023/09/13 11:13:33;;;;;;;8.65;5.85;;;22.80;61.50;;;;;;5004097;28;20040;-58
2023/09/13 11:16:03;;;;;;;6.75;5.97;;;22.80;61.90;;;;;;5002763;28;20026;-56
2023/09/13 11:18:30;;;;;;;9.38;6.13;;;22.80;62.20;;;;;;5003227;28;20029;-57
2023/09/13 11:20:59;;;;;;;9.73;6.28;;;22.80;62.20;;;;;;5001385;28;20451;-57
2023/09/13 11:23:25;;;;;;;8.02;6.20;;;22.70;62.40;;;;;;5006715;28;20434;-57
2023/09/13 11:25:57;;;;;;;10.10;5.93;;;22.70;62.70;;;;;;5004863;28;20104;-57
2023/09/13 11:28:35;;;;;;;9.02;6.65;;;22.80;62.50;;;;;;5004419;28;20026;-57
2023/09/13 11:31:02;;;;;;;7.65;6.53;;;22.80;63.40;;;;;;5001197;28;20148;-58
2023/09/13 11:33:29;;;;;;;10.93;6.63;;;22.80;64.50;;;;;;5001448;28;20074;-58
2023/09/13 11:35:57;;;;;;;12.95;7.50;;;22.70;65.10;;;;;;5007716;28;20029;-58
2023/09/13 11:38:23;;;;;;;9.43;6.60;;;22.70;65.30;;;;;;5006395;28;20486;-57
2023/09/13 11:40:52;;;;;;;8.75;6.70;;;22.70;65.00;;;;;;5005412;28;20034;-58
2023/09/13 11:43:26;;;;;;;7.72;5.75;;;22.70;64.20;;;;;;5008171;28;20030;-58
2023/09/13 11:45:55;;;;;;;6.40;5.75;;;22.70;63.40;;;;;;5006813;28;20449;-58
2023/09/13 11:48:48;;;;;;;7.13;5.40;;;22.70;63.40;;;;;;5007124;28;20596;-58
2023/09/13 11:51:16;;;;;;;7.22;5.70;;;22.70;63.20;;;;;;5000968;28;20041;-57
2023/09/13 11:53:42;;;;;;;8.38;5.88;;;22.70;63.50;;;;;;5005183;28;20018;-58
2023/09/13 11:56:29;;;;;;;8.52;5.07;;;22.70;62.60;;;;;;4971884;28;1160975;-58
2023/09/13 11:59:00;;;;;;;7.53;5.80;;;22.70;62.10;;;;;;4998488;28;20029;-57
2023/09/13 12:01:28;;;;;;;6.32;4.88;;;22.70;62.20;;;;;;5006131;28;20066;-57
2023/09/13 12:03:53;;;;;;;7.72;5.50;;;22.70;62.20;;;;;;5008239;28;20026;-58
2023/09/13 12:06:19;;;;;;;8.90;5.57;;;22.70;62.10;;;;;;5004312;28;20044;-56
2023/09/13 12:08:47;;;;;;;7.68;5.40;;;22.70;62.40;;;;;;5005620;28;20080;-57
2023/09/13 12:11:13;;;;;;;8.90;5.20;;;22.80;62.00;;;;;;5002735;28;20089;-58
2023/09/13 12:13:40;;;;;;;8.60;5.13;;;22.80;61.90;;;;;;4994355;28;20219;-58
2023/09/13 12:16:07;;;;;;;8.30;5.60;;;22.80;62.20;;;;;;5012168;28;20022;-55
2023/09/13 12:18:32;;;;;;;6.32;5.47;;;22.80;62.10;;;;;;5006191;28;20037;-57
2023/09/13 12:20:58;;;;;;;7.05;5.45;;;22.80;61.40;;;;;;5009218;28;20026;-58
2023/09/13 12:23:25;;;;;;;7.57;5.72;;;22.80;61.00;;;;;;5005515;28;20026;-57
2023/09/13 12:25:55;;;;;;;8.05;5.55;;;22.80;60.40;;;;;;5005575;28;20538;-56
2023/09/13 12:28:30;;;;;;;8.48;5.50;;;22.90;60.40;;;;;;4998968;28;20434;-58
2023/09/13 12:30:56;;;;;;;6.80;5.40;;;22.90;60.50;;;;;;5003732;28;20074;-57
2023/09/13 12:33:23;;;;;;;6.18;5.57;;;22.90;61.30;;;;;;5003757;28;20026;-58